Time;durP1;ratioP1;P1;durP2;ratioP2;P2;SDS_P1;SDS_P2;PMS_P1;PMS_P2;Temp;Humidity;BMP_temperature;BMP_pressure;BME280_temperature;BME280_humidity;BME280_pressure;Samples;Min_cycle;Max_cycle;Signal;HPM_P1;HPM_P2
2024/03/16 00:02:19;;;;;;;1.63;0.60;;;;;;;10.64;100.00;154092.47;4979584;28;20459;-75
2024/03/16 00:04:47;;;;;;;1.10;0.70;;;;;;;10.62;100.00;154087.25;4997568;28;20455;-75
2024/03/16 00:07:14;;;;;;;1.10;0.70;;;;;;;10.67;100.00;154098.94;4993934;28;20472;-74
2024/03/16 00:09:41;;;;;;;1.70;0.70;;;;;;;10.63;100.00;154089.84;4977415;28;20459;-74
2024/03/16 00:12:08;;;;;;;1.10;0.70;;;;;;;10.62;100.00;154085.94;4995583;28;20475;-74
2024/03/16 00:14:34;;;;;;;1.00;0.60;;;;;;;10.59;100.00;154078.22;4994750;28;20459;-74
2024/03/16 00:17:03;;;;;;;1.10;0.57;;;;;;;10.53;100.00;154062.66;5012415;28;20448;-74
2024/03/16 00:19:30;;;;;;;1.07;0.60;;;;;;;10.47;100.00;154048.41;4994529;28;20828;-75
2024/03/16 00:21:57;;;;;;;1.17;0.50;;;;;;;10.47;100.00;154048.41;4996027;28;20454;-74
2024/03/16 00:24:25;;;;;;;0.90;0.50;;;;;;;10.49;100.00;154053.59;4978635;28;20459;-74
2024/03/16 00:26:52;;;;;;;0.80;0.40;;;;;;;10.45;100.00;154043.25;4996632;28;20811;-73
2024/03/16 00:29:19;;;;;;;1.17;0.77;;;;;;;10.42;100.00;154035.47;4995894;28;20463;-74
2024/03/16 00:31:48;;;;;;;1.43;0.40;;;;;;;10.37;100.00;154023.84;4991686;28;20475;-74
2024/03/16 00:34:15;;;;;;;0.70;0.30;;;;;;;10.34;100.00;154014.75;4977427;28;20948;-75
2024/03/16 00:36:42;;;;;;;2.40;0.80;;;;;;;10.34;100.00;154014.75;5008163;28;20478;-75
2024/03/16 00:39:14;;;;;;;0.90;0.43;;;;;;;10.31;100.00;154008.28;4972316;28;21033;-75
2024/03/16 00:41:42;;;;;;;1.73;0.40;;;;;;;10.33;100.00;154013.47;4963460;28;20444;-74
2024/03/16 00:44:09;;;;;;;1.40;0.53;;;;;;;10.33;100.00;154012.16;4988234;28;20449;-74
2024/03/16 00:46:36;;;;;;;0.90;0.40;;;;;;;10.31;100.00;154007.00;5008284;28;20486;-74
2024/03/16 00:49:05;;;;;;;0.97;0.43;;;;;;;10.30;100.00;154004.38;5014404;23;20497;-88
2024/03/16 00:51:33;;;;;;;0.80;0.40;;;;;;;10.24;100.00;153988.88;5023448;23;20486;-88
2024/03/16 00:54:02;;;;;;;1.10;0.47;;;;;;;10.20;100.00;153978.50;4996367;28;20675;-88
2024/03/16 00:56:31;;;;;;;2.07;0.43;;;;;;;10.15;100.00;153965.56;4998792;28;20940;-88
2024/03/16 00:58:58;;;;;;;2.80;0.73;;;;;;;10.13;100.00;153961.69;5009504;28;20452;-88
2024/03/16 01:01:27;;;;;;;1.10;0.47;;;;;;;10.15;100.00;153965.56;5016742;28;20448;-89
2024/03/16 01:03:54;;;;;;;1.70;0.50;;;;;;;10.08;100.00;153947.41;5005627;28;20457;-89
2024/03/16 01:06:22;;;;;;;0.70;0.30;;;;;;;10.07;100.00;153944.81;5047643;28;20457;-88
2024/03/16 01:08:48;;;;;;;1.00;0.63;;;;;;;10.07;100.00;153944.81;5055649;28;20466;-88
2024/03/16 01:11:15;;;;;;;0.90;0.47;;;;;;;10.02;100.00;153933.16;5029659;28;20481;-89
2024/03/16 01:13:43;;;;;;;1.10;0.60;;;;;;;10.00;100.00;153926.69;5043785;28;20973;-89
2024/03/16 01:16:10;;;;;;;0.97;0.47;;;;;;;9.97;100.00;153920.22;5026356;28;20462;-88
2024/03/16 01:18:36;;;;;;;1.30;0.50;;;;;;;9.97;100.00;153920.22;5031596;28;20876;-88
2024/03/16 01:21:05;;;;;;;0.80;0.40;;;;;;;9.96;100.00;153917.63;5030936;28;20443;-88
2024/03/16 01:23:33;;;;;;;1.07;0.50;;;;;;;9.95;100.00;153915.06;5033815;23;20837;-88
2024/03/16 01:26:00;;;;;;;0.97;0.50;;;;;;;9.93;100.00;153908.59;5015662;28;20557;-90
2024/03/16 01:28:27;;;;;;;0.90;0.50;;;;;;;9.95;100.00;153913.75;5030287;28;20446;-89
2024/03/16 01:30:53;;;;;;;0.93;0.53;;;;;;;9.90;100.00;153900.81;5034767;28;20446;-89
2024/03/16 01:33:20;;;;;;;0.93;0.40;;;;;;;9.91;100.00;153904.69;5032561;28;20450;-90
2024/03/16 01:35:48;;;;;;;1.00;0.30;;;;;;;9.89;100.00;153899.53;5006363;28;20485;-89
2024/03/16 01:38:15;;;;;;;0.90;0.50;;;;;;;9.89;100.00;153898.22;5019796;28;20547;-90
2024/03/16 01:40:41;;;;;;;1.00;0.40;;;;;;;9.90;100.00;153902.06;5003620;28;20454;-89
2024/03/16 01:43:09;;;;;;;0.80;0.40;;;;;;;9.89;100.00;153899.53;5029491;28;20443;-89
2024/03/16 01:45:35;;;;;;;0.90;0.50;;;;;;;9.90;100.00;153900.81;5002208;28;20450;-90
2024/03/16 01:48:03;;;;;;;0.80;0.30;;;;;;;9.91;100.00;153903.38;5035630;28;20449;-89
2024/03/16 01:50:30;;;;;;;2.60;0.50;;;;;;;9.88;100.00;153895.59;5036145;28;20608;-89
2024/03/16 01:52:57;;;;;;;0.80;0.33;;;;;;;9.84;100.00;153886.59;5019889;28;20466;-89
2024/03/16 01:55:23;;;;;;;1.60;0.60;;;;;;;9.84;100.00;153885.28;5018356;28;20445;-90
2024/03/16 01:57:53;;;;;;;2.70;0.50;;;;;;;9.82;100.00;153882.69;5020436;28;20439;-89
2024/03/16 02:00:19;;;;;;;1.17;0.30;;;;;;;9.83;100.00;153883.97;5019808;28;20513;-89
2024/03/16 02:02:46;;;;;;;0.83;0.50;;;;;;;9.83;100.00;153883.97;5015237;28;20439;-89
2024/03/16 02:05:14;;;;;;;3.13;0.40;;;;;;;9.84;100.00;153885.28;5030670;28;20450;-90
2024/03/16 02:07:40;;;;;;;0.90;0.40;;;;;;;9.78;100.00;153872.34;5021601;28;20454;-90
2024/03/16 02:10:08;;;;;;;0.90;0.50;;;;;;;9.77;100.00;153869.75;5031938;28;20462;-89
2024/03/16 02:12:35;;;;;;;0.90;0.40;;;;;;;9.79;100.00;153874.91;4998980;28;20471;-89
2024/03/16 02:15:02;;;;;;;1.13;0.40;;;;;;;9.77;100.00;153869.75;5043042;28;20574;-90
2024/03/16 02:17:29;;;;;;;1.10;0.60;;;;;;;9.76;100.00;153867.19;4996118;28;20544;-89
2024/03/16 02:19:55;;;;;;;1.47;0.40;;;;;;;9.82;100.00;153880.13;5030015;28;20450;-89
2024/03/16 02:22:23;;;;;;;2.00;0.80;;;;;;;9.82;100.00;153880.13;5017170;28;20529;-89
2024/03/16 02:24:49;;;;;;;1.20;0.40;;;;;;;9.77;100.00;153868.44;5024790;28;20484;-89
2024/03/16 02:27:16;;;;;;;1.40;0.43;;;;;;;9.75;100.00;153864.56;5030444;28;20497;-89
2024/03/16 02:29:43;;;;;;;0.80;0.40;;;;;;;9.74;100.00;153861.97;4999284;28;20485;-89
2024/03/16 02:32:09;;;;;;;0.80;0.33;;;;;;;9.75;100.00;153863.28;5017622;28;20470;-89
2024/03/16 02:34:37;;;;;;;0.80;0.40;;;;;;;9.76;100.00;153867.19;5033594;28;20572;-90
2024/03/16 02:37:04;;;;;;;0.97;0.50;;;;;;;9.75;100.00;153864.56;5034850;28;20535;-89
2024/03/16 02:39:31;;;;;;;1.00;0.53;;;;;;;9.76;100.00;153867.19;5018965;28;20450;-89
2024/03/16 02:41:58;;;;;;;1.13;0.70;;;;;;;9.74;100.00;153860.72;5018918;28;20434;-89
2024/03/16 02:44:25;;;;;;;0.87;0.33;;;;;;;9.74;100.00;153860.72;5040093;28;20505;-89
2024/03/16 02:46:52;;;;;;;1.07;0.40;;;;;;;9.73;100.00;153858.09;5030347;28;20457;-90
2024/03/16 02:49:20;;;;;;;0.87;0.37;;;;;;;9.72;100.00;153855.50;5030871;28;20880;-89
2024/03/16 02:51:47;;;;;;;0.80;0.40;;;;;;;9.70;100.00;153850.34;5034651;28;20474;-88
2024/03/16 02:54:14;;;;;;;1.03;0.50;;;;;;;9.67;100.00;153843.88;4998214;28;20513;-88
2024/03/16 02:56:41;;;;;;;1.47;0.40;;;;;;;9.68;100.00;153846.47;5032831;28;20453;-88
2024/03/16 02:59:08;;;;;;;1.10;0.50;;;;;;;9.68;100.00;153846.47;5016293;28;20804;-88
2024/03/16 03:01:35;;;;;;;1.00;0.50;;;;;;;9.69;100.00;153849.03;5017174;28;20442;-88
2024/03/16 03:04:02;;;;;;;0.93;0.43;;;;;;;9.64;100.00;153836.09;5030596;28;20457;-88
2024/03/16 03:06:30;;;;;;;1.03;0.50;;;;;;;9.66;100.00;153840.00;5033927;28;20469;-89
2024/03/16 03:08:56;;;;;;;0.80;0.50;;;;;;;9.65;100.00;153838.72;5022301;28;20509;-88
2024/03/16 03:11:23;;;;;;;1.50;0.80;;;;;;;9.64;100.00;153834.81;5029097;28;20430;-88
2024/03/16 03:13:50;;;;;;;1.40;0.63;;;;;;;9.64;100.00;153836.09;5029972;28;20846;-88
2024/03/16 03:16:19;;;;;;;0.90;0.40;;;;;;;9.66;100.00;153841.25;5032858;28;20491;-89
2024/03/16 03:18:46;;;;;;;1.03;0.63;;;;;;;9.64;100.00;153836.09;5034346;28;20461;-88
2024/03/16 03:21:13;;;;;;;0.80;0.40;;;;;;;9.68;100.00;153845.16;5016562;28;20434;-88
2024/03/16 03:23:40;;;;;;;0.83;0.40;;;;;;;9.69;100.00;153847.72;5028460;28;20691;-89
2024/03/16 03:26:08;;;;;;;0.80;0.37;;;;;;;9.70;100.00;153851.63;4999561;28;20438;-89
2024/03/16 03:28:34;;;;;;;1.37;0.50;;;;;;;9.68;100.00;153846.47;5007039;28;20458;-89
2024/03/16 03:31:01;;;;;;;1.10;0.50;;;;;;;9.70;100.00;153851.63;5020199;28;20433;-89
2024/03/16 03:33:28;;;;;;;1.33;0.50;;;;;;;9.68;100.00;153846.47;5033153;28;20476;-88
2024/03/16 03:35:55;;;;;;;3.90;0.50;;;;;;;9.72;100.00;153856.81;5013347;28;20445;-88
2024/03/16 03:38:21;;;;;;;1.10;0.50;;;;;;;9.73;100.00;153859.41;5014643;28;20458;-88
2024/03/16 03:40:48;;;;;;;0.90;0.47;;;;;;;9.70;100.00;153851.63;5004081;28;20458;-88
2024/03/16 03:43:19;;;;;;;0.90;0.40;;;;;;;9.71;100.00;153852.94;5033731;28;20442;-88
2024/03/16 03:45:50;;;;;;;1.27;0.60;;;;;;;9.70;100.00;153851.63;5035207;28;20457;-88
2024/03/16 03:48:25;;;;;;;1.10;0.43;;;;;;;9.72;100.00;153856.81;5016244;28;20479;-88
2024/03/16 03:50:52;;;;;;;1.23;0.80;;;;;;;9.70;100.00;153851.63;5003106;28;20453;-88
2024/03/16 03:53:17;;;;;;;0.80;0.50;;;;;;;9.72;100.00;153856.81;5032407;28;20505;-89
2024/03/16 03:55:44;;;;;;;0.90;0.43;;;;;;;9.71;100.00;153854.25;5035130;28;20986;-88
2024/03/16 03:58:11;;;;;;;0.90;0.40;;;;;;;9.73;100.00;153859.41;5027639;28;20568;-88
2024/03/16 04:00:38;;;;;;;1.47;1.00;;;;;;;9.74;100.00;153861.97;5031971;28;20493;-86
2024/03/16 04:03:06;;;;;;;0.83;0.40;;;;;;;9.74;100.00;153861.97;5012800;28;20438;-88
2024/03/16 04:05:33;;;;;;;0.80;0.40;;;;;;;9.77;100.00;153869.75;5022170;28;20461;-88
2024/03/16 04:08:00;;;;;;;2.13;0.70;;;;;;;9.78;100.00;153872.34;5027871;28;20953;-88
2024/03/16 04:10:26;;;;;;;0.90;0.50;;;;;;;9.77;100.00;153868.44;5026971;28;20515;-88
2024/03/16 04:12:54;;;;;;;0.80;0.47;;;;;;;9.75;100.00;153864.56;5017485;28;20527;-87
2024/03/16 04:15:20;;;;;;;2.80;0.73;;;;;;;9.75;100.00;153864.56;5003952;28;20489;-87
2024/03/16 04:17:47;;;;;;;1.67;0.40;;;;;;;9.79;100.00;153873.66;5014880;28;20453;-88
2024/03/16 04:20:14;;;;;;;1.10;0.50;;;;;;;9.78;100.00;153872.34;5017500;28;20454;-87
2024/03/16 04:22:41;;;;;;;0.97;0.50;;;;;;;9.75;100.00;153864.56;5020430;28;20419;-88
2024/03/16 04:25:09;;;;;;;0.90;0.47;;;;;;;9.75;100.00;153864.56;5038550;28;20485;-88
2024/03/16 04:27:35;;;;;;;1.40;0.60;;;;;;;9.75;100.00;153863.28;5015912;28;20555;-88
2024/03/16 04:30:02;;;;;;;1.10;0.60;;;;;;;9.77;100.00;153869.75;5017229;28;20450;-87
2024/03/16 04:32:29;;;;;;;1.43;0.50;;;;;;;9.79;100.00;153874.91;5028848;28;20481;-88
2024/03/16 04:34:55;;;;;;;2.23;0.67;;;;;;;9.81;100.00;153878.81;5015832;28;20448;-88
2024/03/16 04:37:22;;;;;;;1.87;0.60;;;;;;;9.83;100.00;153883.97;5022519;28;20462;-88
2024/03/16 04:39:48;;;;;;;0.83;0.40;;;;;;;9.82;100.00;153882.69;5008879;28;20973;-88
2024/03/16 04:42:15;;;;;;;1.13;0.80;;;;;;;9.82;100.00;153882.69;5020455;28;20418;-88
2024/03/16 04:44:42;;;;;;;1.30;0.60;;;;;;;9.78;100.00;153872.34;5002531;28;21303;-88
2024/03/16 04:47:08;;;;;;;1.80;0.70;;;;;;;9.82;100.00;153880.13;5025276;28;20820;-88
2024/03/16 04:49:35;;;;;;;2.07;0.83;;;;;;;9.85;100.00;153887.88;5026907;28;21005;-88
2024/03/16 04:52:02;;;;;;;2.00;0.87;;;;;;;9.89;100.00;153898.22;5014414;28;20438;-88
2024/03/16 04:54:29;;;;;;;2.87;0.73;;;;;;;9.88;100.00;153895.59;4998890;28;20454;-89
2024/03/16 04:56:55;;;;;;;1.13;0.60;;;;;;;9.89;100.00;153899.53;5016406;28;20459;-89
2024/03/16 04:59:22;;;;;;;1.47;0.67;;;;;;;9.87;100.00;153893.06;5017435;28;20505;-89
2024/03/16 05:01:49;;;;;;;2.53;0.90;;;;;;;9.81;100.00;153878.81;5035600;28;20457;-89
2024/03/16 05:04:15;;;;;;;2.63;0.90;;;;;;;9.78;100.00;153872.34;5007943;28;20482;-89
2024/03/16 05:06:42;;;;;;;1.37;0.70;;;;;;;9.79;100.00;153874.91;5033729;28;20467;-89
2024/03/16 05:09:09;;;;;;;2.93;1.13;;;;;;;9.85;100.00;153887.88;5005188;28;20443;-90
2024/03/16 05:11:36;;;;;;;1.20;0.60;;;;;;;9.82;100.00;153882.69;5021306;28;20867;-90
2024/03/16 05:14:05;;;;;;;1.47;0.80;;;;;;;9.78;100.00;153872.34;5001533;28;20597;-90
2024/03/16 05:16:32;;;;;;;1.50;0.80;;;;;;;9.83;100.00;153883.97;5034281;28;20451;-90
2024/03/16 05:19:01;;;;;;;1.40;0.90;;;;;;;9.77;100.00;153869.75;5041880;28;20463;-90
2024/03/16 05:21:28;;;;;;;1.60;0.77;;;;;;;9.76;100.00;153867.19;5022035;28;20434;-90
2024/03/16 05:23:55;;;;;;;1.57;0.70;;;;;;;9.73;100.00;153859.41;5034372;28;20520;-90
2024/03/16 05:26:21;;;;;;;3.43;1.10;;;;;;;9.72;100.00;153856.81;5017982;28;20431;-89
2024/03/16 05:28:48;;;;;;;1.60;1.00;;;;;;;9.72;100.00;153855.50;5037493;28;20973;-89
2024/03/16 05:31:15;;;;;;;1.97;0.70;;;;;;;9.69;100.00;153849.03;5048820;28;20455;-90
2024/03/16 05:33:42;;;;;;;1.03;0.63;;;;;;;9.71;100.00;153852.94;5057177;28;20492;-90
2024/03/16 05:36:12;;;;;;;1.60;1.10;;;;;;;9.71;100.00;153854.25;5059244;28;20445;-90
2024/03/16 05:38:39;;;;;;;1.70;0.80;;;;;;;9.72;100.00;153856.81;5032468;28;20439;-90
2024/03/16 05:41:06;;;;;;;1.70;0.77;;;;;;;9.72;100.00;153856.81;5035939;28;20524;-90
2024/03/16 05:43:33;;;;;;;1.77;0.83;;;;;;;9.71;100.00;153854.25;5004012;28;20469;-90
2024/03/16 05:45:59;;;;;;;1.00;0.70;;;;;;;9.75;100.00;153864.56;5037120;28;20430;-90
2024/03/16 05:48:26;;;;;;;2.50;1.10;;;;;;;9.77;100.00;153868.44;5033317;28;20497;-90
2024/03/16 05:50:53;;;;;;;2.10;0.93;;;;;;;9.75;100.00;153864.56;5022417;28;20840;-90
2024/03/16 05:53:20;;;;;;;1.33;1.17;;;;;;;9.78;100.00;153871.03;5036917;28;20589;-90
2024/03/16 05:56:15;;;;;;;1.53;0.70;;;;;;;9.73;100.00;153859.41;5020739;28;20477;-90
2024/03/16 05:58:49;;;;;;;1.07;0.70;;;;;;;9.73;100.00;153859.41;5036241;28;20461;-91
2024/03/16 06:01:16;;;;;;;1.80;0.60;;;;;;;9.73;100.00;153859.41;5023479;28;20531;-90
2024/03/16 06:03:43;;;;;;;1.73;0.80;;;;;;;9.76;100.00;153867.19;5036996;28;20429;-90
2024/03/16 06:06:09;;;;;;;1.20;0.80;;;;;;;9.82;100.00;153882.69;5036770;28;20474;-91
2024/03/16 06:08:36;;;;;;;1.57;1.10;;;;;;;9.84;100.00;153886.59;5036478;28;20453;-90
2024/03/16 06:11:03;;;;;;;2.03;0.77;;;;;;;9.77;100.00;153869.75;5018014;28;20533;-91
2024/03/16 06:13:30;;;;;;;1.90;0.63;;;;;;;9.78;100.00;153871.03;5016586;28;20474;-90
2024/03/16 06:15:56;;;;;;;2.20;0.80;;;;;;;9.82;100.00;153880.13;5042029;28;20536;-90
2024/03/16 06:18:23;;;;;;;1.20;0.80;;;;;;;9.84;100.00;153885.28;5019929;28;20503;-89
2024/03/16 06:20:50;;;;;;;1.73;0.90;;;;;;;9.84;100.00;153885.28;5014867;28;20517;-90
2024/03/16 06:23:16;;;;;;;1.30;0.93;;;;;;;9.84;100.00;153885.28;5031244;28;20454;-90
2024/03/16 06:25:48;;;;;;;1.50;0.80;;;;;;;9.86;100.00;153891.75;5036587;28;20990;-89
2024/03/16 06:28:17;;;;;;;1.73;0.87;;;;;;;9.92;100.00;153907.28;5041850;28;20999;-90
2024/03/16 06:30:48;;;;;;;1.10;0.60;;;;;;;9.91;100.00;153903.38;5019341;28;21046;-90
2024/03/16 06:33:26;;;;;;;1.20;0.63;;;;;;;9.98;100.00;153921.53;5027533;28;20549;-90
2024/03/16 06:35:54;;;;;;;1.40;0.80;;;;;;;10.01;100.00;153930.56;5039068;28;20436;-89
2024/03/16 06:38:21;;;;;;;1.50;0.60;;;;;;;10.03;100.00;153934.47;5035981;28;20446;-89
2024/03/16 06:40:48;;;;;;;1.00;0.50;;;;;;;10.05;100.00;153939.63;5019979;28;20450;-90
2024/03/16 06:43:14;;;;;;;0.97;0.60;;;;;;;10.07;100.00;153944.81;5036073;28;20519;-90
2024/03/16 06:45:42;;;;;;;1.67;0.83;;;;;;;10.07;100.00;153944.81;5035913;28;20474;-90
2024/03/16 06:48:09;;;;;;;1.63;0.60;;;;;;;10.09;100.00;153951.25;5002898;28;20452;-90
2024/03/16 06:50:36;;;;;;;0.90;0.40;;;;;;;10.12;100.00;153957.72;5031924;28;20496;-89
2024/03/16 06:53:03;;;;;;;1.10;0.80;;;;;;;10.15;100.00;153965.56;5035814;28;20474;-90
2024/03/16 06:55:29;;;;;;;1.37;0.73;;;;;;;10.15;100.00;153965.56;5005076;28;20945;-90
2024/03/16 06:57:56;;;;;;;1.13;0.47;;;;;;;10.16;100.00;153968.16;5043364;28;20854;-90
2024/03/16 07:00:23;;;;;;;2.00;0.77;;;;;;;10.18;100.00;153974.63;5031292;28;20459;-90
2024/03/16 07:02:49;;;;;;;0.90;0.60;;;;;;;10.14;100.00;153963.00;5015243;28;20455;-90
2024/03/16 07:05:16;;;;;;;1.40;0.60;;;;;;;10.17;100.00;153970.72;5019091;28;21021;-89
2024/03/16 07:07:43;;;;;;;1.77;0.70;;;;;;;10.17;100.00;153970.72;5018387;28;20477;-89
2024/03/16 07:10:09;;;;;;;1.00;0.43;;;;;;;10.17;100.00;153970.72;5027076;28;20450;-90
2024/03/16 07:12:36;;;;;;;1.57;0.87;;;;;;;10.19;100.00;153975.94;5035575;28;20508;-89
2024/03/16 07:15:04;;;;;;;1.63;0.50;;;;;;;10.19;100.00;153977.19;5024274;28;20928;-90
2024/03/16 07:17:32;;;;;;;1.60;0.73;;;;;;;10.18;100.00;153973.34;5033449;28;20526;-91
2024/03/16 07:19:59;;;;;;;1.10;0.67;;;;;;;10.21;100.00;153982.41;5016666;28;21030;-90
2024/03/16 07:22:27;;;;;;;1.60;0.80;;;;;;;10.25;100.00;153991.44;5019221;28;21008;-90
2024/03/16 07:24:54;;;;;;;1.50;0.60;;;;;;;10.23;100.00;153986.28;5032426;28;20470;-91
2024/03/16 07:27:21;;;;;;;1.07;0.53;;;;;;;10.25;100.00;153992.75;5031716;28;21159;-90
2024/03/16 07:29:47;;;;;;;3.07;0.87;;;;;;;10.27;100.00;153996.66;5044465;28;20515;-90
2024/03/16 07:32:14;;;;;;;1.83;1.20;;;;;;;10.34;100.00;154014.75;5031721;28;20519;-90
2024/03/16 07:34:41;;;;;;;1.63;1.10;;;;;;;10.36;100.00;154019.94;5018320;28;20495;-91
2024/03/16 07:37:08;;;;;;;2.20;0.80;;;;;;;10.42;100.00;154035.47;5018445;28;20858;-90
2024/03/16 07:39:35;;;;;;;3.00;0.80;;;;;;;10.41;100.00;154032.88;5012114;28;20455;-90
2024/03/16 07:42:01;;;;;;;1.50;1.00;;;;;;;10.42;100.00;154035.47;5021554;28;20454;-91
2024/03/16 07:44:29;;;;;;;1.20;0.77;;;;;;;10.46;100.00;154045.81;4997559;28;20455;-91
2024/03/16 07:46:55;;;;;;;3.03;1.27;;;;;;;10.48;100.00;154051.03;5032522;28;20458;-90
2024/03/16 07:49:22;;;;;;;2.63;1.20;;;;;;;10.50;100.00;154054.88;5020080;28;20871;-91
2024/03/16 07:51:49;;;;;;;1.67;1.20;;;;;;;10.49;100.00;154053.59;5010849;28;20491;-91
2024/03/16 07:54:15;;;;;;;2.37;1.60;;;;;;;10.47;100.00;154048.41;5038984;28;20489;-93
2024/03/16 07:56:42;;;;;;;1.60;1.50;;;;;;;10.47;100.00;154048.41;5023438;28;20467;-92
2024/03/16 07:59:09;;;;;;;1.60;1.30;;;;;;;10.49;100.00;154053.59;5040831;28;20463;-92
2024/03/16 08:01:36;;;;;;;2.40;1.67;;;;;;;10.50;100.00;154054.88;5047363;28;20439;-92
2024/03/16 08:04:03;;;;;;;2.40;1.80;;;;;;;10.55;100.00;154067.84;5048451;28;20499;-92
2024/03/16 08:06:30;;;;;;;2.27;1.40;;;;;;;10.56;100.00;154070.44;5040688;28;20444;-91
2024/03/16 08:08:56;;;;;;;3.63;1.60;;;;;;;10.59;100.00;154079.47;5040306;28;20564;-92
2024/03/16 08:11:23;;;;;;;3.63;2.10;;;;;;;10.64;100.00;154092.47;5024340;28;20441;-92
2024/03/16 08:13:50;;;;;;;2.70;1.67;;;;;;;10.66;100.00;154097.63;5040402;28;20481;-93
2024/03/16 08:16:16;;;;;;;2.40;1.33;;;;;;;10.69;100.00;154105.41;5010081;28;20434;-92
2024/03/16 08:18:43;;;;;;;2.07;1.27;;;;;;;10.73;100.00;154115.75;5035848;28;20438;-92
2024/03/16 08:21:13;;;;;;;1.30;1.13;;;;;;;10.72;100.00;154113.13;5036317;28;20452;-93
2024/03/16 08:23:39;;;;;;;2.77;1.20;;;;;;;10.76;100.00;154123.53;5039221;28;20534;-93
2024/03/16 08:26:06;;;;;;;1.50;1.20;;;;;;;10.79;100.00;154131.28;5020365;28;20493;-93
2024/03/16 08:28:33;;;;;;;1.40;1.10;;;;;;;10.78;100.00;154128.69;5019992;28;20447;-94
2024/03/16 08:31:00;;;;;;;1.80;1.30;;;;;;;10.78;100.00;154128.69;5036332;28;20517;-94
2024/03/16 08:33:27;;;;;;;1.37;0.97;;;;;;;10.79;100.00;154131.28;5019538;28;20504;-94
2024/03/16 08:35:53;;;;;;;1.00;0.70;;;;;;;10.81;100.00;154136.47;5022052;28;20788;-92
2024/03/16 08:38:20;;;;;;;1.60;1.03;;;;;;;10.86;100.00;154149.41;5020166;28;20471;-93
2024/03/16 08:40:47;;;;;;;1.17;0.90;;;;;;;10.89;100.00;154157.19;5035972;28;20440;-93
2024/03/16 08:43:14;;;;;;;3.10;1.30;;;;;;;10.99;100.00;154181.78;5035290;28;20488;-92
2024/03/16 08:45:40;;;;;;;1.37;0.70;;;;;;;11.16;100.00;154224.53;5002925;28;20449;-92
2024/03/16 08:48:07;;;;;;;2.90;0.80;;;;;;;11.24;100.00;154246.56;5019575;28;21000;-93
2024/03/16 08:50:34;;;;;;;1.60;0.80;;;;;;;11.29;100.00;154258.22;5002638;28;20443;-92
2024/03/16 08:53:01;;;;;;;1.20;0.80;;;;;;;11.29;100.00;154258.22;5011803;28;20445;-91
2024/03/16 08:55:28;;;;;;;1.10;0.70;;;;;;;11.31;100.00;154264.69;5034980;28;20465;-93
2024/03/16 08:57:55;;;;;;;2.10;0.80;;;;;;;11.46;100.00;154302.28;5052108;28;20449;-92
2024/03/16 09:00:21;;;;;;;2.20;0.63;;;;;;;11.47;100.00;154304.84;5040007;28;20453;-92
2024/03/16 09:02:50;;;;;;;2.10;0.73;;;;;;;11.50;100.00;154312.63;5038398;28;20977;-93
2024/03/16 09:05:16;;;;;;;1.60;0.83;;;;;;;11.54;100.00;154323.03;5020889;28;20443;-93
2024/03/16 09:07:42;;;;;;;1.30;0.70;;;;;;;11.67;100.00;154356.72;5002406;28;20470;-92
2024/03/16 09:10:10;;;;;;;1.43;1.00;;;;;;;11.84;100.00;154400.78;5001872;28;20925;-91
2024/03/16 09:12:37;;;;;;;2.23;1.00;;;;;;;11.93;100.00;154422.84;5021011;28;20529;-92
2024/03/16 09:15:05;;;;;;;1.60;0.60;;;;;;;11.99;100.00;154438.41;5031727;28;20536;-91
2024/03/16 09:17:32;;;;;;;1.93;0.80;;;;;;;11.99;100.00;154439.66;5011377;28;20934;-88
2024/03/16 09:20:06;;;;;;;1.10;0.70;;;;;;;11.96;100.00;154431.94;5001781;28;20462;-95
2024/03/16 09:22:33;;;;;;;1.57;0.50;;;;;;;12.03;100.00;154448.75;5020631;28;20522;-94
2024/03/16 09:25:00;;;;;;;2.50;0.43;;;;;;;12.01;100.00;154444.91;5031070;28;20474;-94
2024/03/16 09:27:26;;;;;;;1.30;0.50;;;;;;;12.04;100.00;154451.38;5037986;28;20450;-94
2024/03/16 09:29:53;;;;;;;1.50;0.77;;;;;;;12.10;100.00;154468.19;5021594;28;20560;-93
2024/03/16 09:32:20;;;;;;;2.20;0.80;;;;;;;12.13;100.00;154475.97;5037891;28;20438;-95
2024/03/16 09:34:47;;;;;;;1.00;0.60;;;;;;;12.13;100.00;154475.97;5037678;28;20825;-94
2024/03/16 09:37:14;;;;;;;1.00;0.50;;;;;;;12.19;100.00;154490.25;5029058;28;20443;-94
2024/03/16 09:39:43;;;;;;;0.93;0.60;;;;;;;12.25;100.00;154504.50;5021323;28;20466;-94
2024/03/16 09:42:10;;;;;;;1.40;0.60;;;;;;;12.29;100.00;154514.84;5023431;28;20466;-95
2024/03/16 09:44:38;;;;;;;1.23;0.60;;;;;;;12.31;100.00;154520.09;5001809;28;20444;-91
2024/03/16 09:47:05;;;;;;;1.37;0.70;;;;;;;12.31;100.00;154521.34;5038127;28;20435;-91
2024/03/16 09:49:35;;;;;;;0.90;0.40;;;;;;;12.28;100.00;154513.59;5037824;28;20544;-91
2024/03/16 09:52:03;;;;;;;0.90;0.40;;;;;;;12.29;100.00;154514.84;5042396;28;20475;-91
2024/03/16 09:54:31;;;;;;;1.07;0.60;;;;;;;12.31;100.00;154520.09;5049950;28;20485;-91
2024/03/16 09:57:03;;;;;;;0.90;0.50;;;;;;;12.31;100.00;154520.09;5013471;28;20453;-90
2024/03/16 09:59:29;;;;;;;1.20;0.57;;;;;;;12.32;100.00;154522.66;5038413;28;20460;-92
2024/03/16 10:01:56;;;;;;;1.40;0.50;;;;;;;12.38;100.00;154538.22;5036337;28;20489;-92
2024/03/16 10:04:23;;;;;;;1.63;0.60;;;;;;;12.47;100.00;154561.59;5034166;28;20450;-75
2024/03/16 10:06:50;;;;;;;1.20;0.50;;;;;;;12.55;100.00;154582.34;5041382;28;20466;-93
2024/03/16 10:09:18;;;;;;;1.33;0.80;;;;;;;12.65;100.00;154608.25;5021243;28;20960;-93
2024/03/16 10:11:45;;;;;;;3.50;1.07;;;;;;;12.69;100.00;154618.63;5039033;28;20434;-94
2024/03/16 10:14:13;;;;;;;1.10;0.60;;;;;;;12.73;100.00;154629.00;5034541;28;20483;-94
2024/03/16 10:16:40;;;;;;;1.77;0.50;;;;;;;12.76;100.00;154638.06;5018754;28;20439;-94
2024/03/16 10:19:07;;;;;;;0.80;0.40;;;;;;;12.77;100.00;154639.38;5018417;28;20807;-94
2024/03/16 10:21:34;;;;;;;1.20;0.60;;;;;;;12.84;100.00;154657.50;5010286;28;20513;-76
2024/03/16 10:24:01;;;;;;;1.10;0.43;;;;;;;12.84;100.00;154657.50;5018992;28;20474;-76
2024/03/16 10:26:31;;;;;;;1.33;0.43;;;;;;;12.82;100.00;154652.31;5018632;28;20487;-75
2024/03/16 10:28:59;;;;;;;0.80;0.40;;;;;;;12.78;100.00;154641.97;5005018;28;20828;-74
2024/03/16 10:31:26;;;;;;;0.93;0.30;;;;;;;12.79;100.00;154644.53;5022357;28;20553;-75
2024/03/16 10:33:56;;;;;;;0.90;0.27;;;;;;;12.82;100.00;154652.31;5006683;28;20585;-75
2024/03/16 10:36:22;;;;;;;0.93;0.30;;;;;;;12.85;100.00;154660.13;5023881;28;20455;-75
2024/03/16 10:38:50;;;;;;;1.27;0.50;;;;;;;12.85;100.00;154660.13;5016043;28;20457;-75
2024/03/16 10:41:17;;;;;;;1.10;0.30;;;;;;;12.87;100.00;154665.28;5021305;28;20450;-75
2024/03/16 10:43:44;;;;;;;0.90;0.30;;;;;;;12.97;100.00;154691.28;5019534;28;20465;-75
2024/03/16 10:46:10;;;;;;;0.80;0.23;;;;;;;12.94;100.00;154682.19;5023024;28;20446;-74
2024/03/16 10:48:37;;;;;;;0.80;0.20;;;;;;;12.89;100.00;154670.53;5003636;28;20797;-76
2024/03/16 10:51:05;;;;;;;1.10;0.37;;;;;;;12.94;100.00;154683.50;5022820;28;20535;-75
2024/03/16 10:53:32;;;;;;;1.00;0.50;;;;;;;12.92;100.00;154677.00;5023309;28;20455;-75
2024/03/16 10:56:00;;;;;;;0.70;0.30;;;;;;;12.93;100.00;154679.56;5019652;28;20466;-75
2024/03/16 10:58:27;;;;;;;1.90;0.40;;;;;;;12.87;100.00;154665.28;5011102;28;20482;-92
2024/03/16 11:00:55;;;;;;;1.00;0.30;;;;;;;12.85;100.00;154660.13;5034893;28;20473;-92
2024/03/16 11:03:25;;;;;;;1.63;0.40;;;;;;;12.89;100.00;154670.53;5037509;28;20427;-91
2024/03/16 11:05:56;;;;;;;0.97;0.30;;;;;;;12.92;100.00;154677.00;5040344;28;20438;-91
2024/03/16 11:08:23;;;;;;;0.70;0.27;;;;;;;12.95;100.00;154684.75;5056824;28;20975;-92
2024/03/16 11:10:52;;;;;;;1.00;0.40;;;;;;;12.98;100.00;154693.84;5042939;28;20529;-91
2024/03/16 11:13:19;;;;;;;0.80;0.20;;;;;;;13.01;100.00;154701.63;5041805;28;20487;-92
2024/03/16 11:15:46;;;;;;;0.80;0.20;;;;;;;13.01;100.00;154701.63;5041162;28;20466;-91
2024/03/16 11:18:43;;;;;;;1.07;0.30;;;;;;;13.08;100.00;154718.56;5022264;28;20943;-92
2024/03/16 11:21:16;;;;;;;1.10;0.40;;;;;;;13.08;100.00;154719.81;5056692;28;20426;-92
2024/03/16 11:23:42;;;;;;;0.80;0.30;;;;;;;13.11;99.89;154727.63;5025538;28;20478;-92